Wednesday, May 24, 2017, 4:13 AM EDT

KGED, Georgetown Sussex Co Airport

Location: Georgetown, DE, United States Lat: 38.683
Local Time: 4:13 AM EDT ( 8:13 GMT) Lon: -75.367
Time Zone: US/Eastern Elev: 52 ft

Show me the last for .
Show Decoded

2017-05-24 03:54 METAR KGED 240754Z AUTO 03004KT 8SM -RA BKN007 OVC042 15/14 A2969 RMK AO2 CIG
                 005V011 SLP052 P0001 T01500139 =
2017-05-24 03:28 METAR KGED 240728Z AUTO 05007KT 10SM -RA BKN007 BKN027 OVC046 14/13 A2969 RMK
                 AO2 P0001 T01440133 =
2017-05-24 03:20 METAR KGED 240720Z AUTO 04008KT 9SM -RA SCT007 BKN027 OVC046 14/13 A2970 RMK AO2
                 P0001 T01440133 =
2017-05-24 02:54 METAR KGED 240654Z AUTO 05007KT 10SM -RA BKN006 OVC045 14/13 A2969 RMK AO2
                 SLP054 P0002 T01440133 =
2017-05-24 01:54 METAR KGED 240554Z AUTO 05008KT 5SM -RA BR OVC006 14/13 A2972 RMK AO2 CIG
                 005V011 SLP063 P0001 60015 T01440133 10156 20139 55017 =
2017-05-24 00:54 METAR KGED 240454Z AUTO 06006KT 9SM -RA OVC006 14/13 A2971 RMK AO2 SLP061 P0002
                 T01440133 401830139 =
2017-05-24 00:29 METAR KGED 240429Z AUTO 06009KT 9SM -RA BKN006 OVC110 14/13 A2971 RMK AO2 P0001
                 T01440133 =
2017-05-23 23:54 METAR KGED 240354Z AUTO 06010KT 6SM -RA BR FEW006 BKN100 14/13 A2972 RMK AO2
                 SLP063 P0004 T01390128 =
2017-05-23 22:54 METAR KGED 240254Z AUTO 06007KT 8SM -RA BKN120 14/13 A2977 RMK AO2 SLP079 P0001
                 60008 T01390128 56021 =
2017-05-23 21:54 METAR KGED 240154Z AUTO 06008KT 7SM -RA BKN110 14/12 A2978 RMK AO2 SLP083 P0004
                 T01390122 =
2017-05-23 20:54 METAR KGED 240054Z AUTO 07005KT 9SM -RA BKN110 14/13 A2981 RMK AO2 SLP094 P0003
                 T01390128 =
2017-05-23 19:54 METAR KGED 232354Z AUTO VRB05KT 10SM -RA OVC110 16/12 A2983 RMK AO2 RAB2257
                 SLP101 P0000 60000 T01560122 10183 20150 55009 =
2017-05-23 18:54 METAR KGED 232254Z AUTO 08005KT 10SM OVC100 16/12 A2982 RMK AO2 SLP097 T01610117
                 =
2017-05-23 17:54 METAR KGED 232154Z AUTO 06006KT 10SM OVC100 17/12 A2983 RMK AO2 SLP101 T01670117
                 =
2017-05-23 16:54 METAR KGED 232054Z AUTO 09007KT 10SM OVC100 17/11 A2986 RMK AO2 SLP110 T01670111
                 56019 =
2017-05-23 15:54 METAR KGED 231954Z AUTO 10006KT 10SM OVC100 17/11 A2987 RMK AO2 SLP115 T01720111
                 $ =
2017-05-23 14:54 METAR KGED 231854Z AUTO 09009KT 10SM OVC110 18/10 A2989 RMK AO2 SLP120 T01780100
                 $ =
2017-05-23 13:54 METAR KGED 231754Z AUTO 08010KT 10SM FEW042 FEW065 18/11 A2991 RMK AO2 SLP129
                 T01780106 10183 20167 $ =
2017-05-23 12:54 METAR KGED 231654Z AUTO 07009KT 10SM FEW070 BKN090 17/12 A2994 RMK AO2 SLPNO
                 T01720117 PWINO $ =
2017-05-23 11:54 METAR KGED 231554Z AUTO 09010KT 10SM FEW015 18/13 A2995 RMK AO2 SLPNO T01780128
                 =
2017-05-23 11:25 METAR KGED 231525Z AUTO 10008KT 10SM BKN015 18/14 A2996 RMK AO2 T01780139 =
2017-05-23 10:54 METAR KGED 231454Z AUTO 10008KT 9SM OVC011 17/14 A2997 RMK AO2 SLP147 T01720139
                 53006 =
2017-05-23 10:01 METAR KGED 231401Z AUTO 08008KT 8SM OVC013 17/14 A2995 RMK AO2 T01720144 =
2017-05-23 09:54 METAR KGED 231354Z AUTO 07008KT 9SM OVC015 17/14 A2995 RMK AO2 SLP140 T01720144
                 =
2017-05-23 09:37 METAR KGED 231337Z AUTO 06010KT 8SM OVC015 17/14 A2996 RMK AO2 T01720144 =
2017-05-23 09:29 METAR KGED 231329Z AUTO 07008KT 6SM HZ OVC013 17/14 A2996 RMK AO2 T01720144 =
2017-05-23 09:19 METAR KGED 231319Z AUTO 07009KT 6SM BR OVC015 17/15 A2995 RMK AO2 T01720150 =
2017-05-23 08:54 METAR KGED 231254Z AUTO 06010KT 6SM BR OVC013 17/15 A2995 RMK AO2 SLP141
                 T01720150 =
2017-05-23 08:37 METAR KGED 231237Z AUTO 06008G16KT 5SM BR OVC013 17/15 A2995 RMK AO2 T01720150 =
2017-05-23 08:24 METAR KGED 231224Z AUTO 05008KT 5SM HZ SCT011 OVC017 18/15 A2995 RMK AO2
                 T01780150 =
2017-05-23 07:54 METAR KGED 231154Z AUTO 05008KT 4SM BR FEW007 BKN013 OVC020 18/16 A2995 RMK AO2
                 SLP141 70051 T01780156 10183 20167 51003 =
2017-05-23 07:50 METAR KGED 231150Z AUTO 05007KT 4SM BR SCT008 OVC013 18/16 A2995 RMK AO2 =
2017-05-23 07:25 METAR KGED 231125Z AUTO 07004KT 3SM BR BKN007 OVC011 18/16 A2995 RMK AO2 CIG
                 004V010 T01780161 $ =
2017-05-23 07:03 METAR KGED 231103Z AUTO 03004KT 2 1/2SM BR OVC005 17/16 A2995 RMK AO2 CIG
                 003V009 T01720161 $ =
2017-05-23 06:54 METAR KGED 231054Z AUTO 04004KT 2 1/2SM BR OVC003 17/16 A2995 RMK AO2 CIG
                 003V009 SLP140 T01720161 $ =
2017-05-23 06:10 METAR KGED 231010Z AUTO 00000KT 2 1/2SM BR OVC003 17/16 A2994 RMK AO2 T01670156
                 $ =
2017-05-23 05:54 METAR KGED 230954Z AUTO 34003KT 4SM BR OVC003 17/16 A2994 RMK AO2 SLP138
                 T01670156 $ =
2017-05-23 05:32 METAR KGED 230932Z AUTO 00000KT 4SM BR BKN004 17/16 A2993 RMK AO2 T01670156 $ =
2017-05-23 05:21 METAR KGED 230921Z AUTO 00000KT 4SM BR SCT004 17/16 A2993 RMK AO2 T01670156 $ =
2017-05-23 04:54 METAR KGED 230854Z AUTO 00000KT 5SM BR CLR 17/16 A2992 RMK AO2 SLP131 T01670156
                 55005 $ =

Support USWX by starting your Amazon purchase here.